Plan B — ZGCC2 — position and weather

sailwx.info

Track history (hours):
 
Tides and Currents Weather Stations Pressure Air Temp Water Temp Dewpoint Dewpoint Depression Visibility Wind Speed Wind Dir Waves Ship Positions

Plan B

Last reported at 2016-May-05 02:14 UTC. Time now 2016-May-05 02:54 UTC.
Position N 18°28' W 064°35'.

Length 73 m; draft 3.6 m.

Type: Pleasure craft. MMSI: 319618000.

Date/timePositionNaut miles runAvg speedWind from/ knotsBaromVisibWave heightAir tempDewpointWater temp
2016-May-05 02:14N 18°28' W 064°35'0 0.0
2016-May-05 01:32N 18°28' W 064°35'0 0.0
2016-May-05 00:05N 18°28' W 064°35'0 0.3
2016-May-04 23:33N 18°28' W 064°35'9 4.4
2016-May-04 21:32N 18°28' W 064°25'2 0.6
2016-May-04 18:11N 18°26' W 064°27'0 0.0
2016-May-04 17:22N 18°26' W 064°27'0 0.0
2016-May-04 16:28N 18°26' W 064°27'0 0.0
2016-May-04 15:28N 18°26' W 064°27'0 0.0
2016-May-04 14:28N 18°26' W 064°27'0 0.0
2016-May-04 13:31N 18°26' W 064°27'0 0.0
2016-May-04 12:31N 18°26' W 064°27'6 0.2
2016-May-03 09:33N 18°31' W 064°23'5611.0
2016-May-03 04:31N 18°15' W 063°27'1311.3
2016-May-03 03:23N 18°08' W 063°16'1011.1
2016-May-03 02:28N 18°02' W 063°07'1 1.3
2016-May-03 01:33N 18°02' W 063°06'0 0.0
2016-May-03 00:32N 18°02' W 063°06'0 0.0
2016-May-02 23:29N 18°02' W 063°06'0 0.0
2016-May-02 22:20N 18°02' W 063°06'0 0.0
2016-May-02 21:32N 18°02' W 063°06'0 0.2
2016-May-02 20:33N 18°02' W 063°06'9 9.3
2016-May-02 19:32N 18°11' W 063°09'0 0.1
2016-May-02 18:33N 18°11' W 063°08'0 0.0
2016-May-02 17:24N 18°11' W 063°08'0 0.0
2016-May-02 16:24N 18°11' W 063°08'0 0.0
2016-May-02 15:24N 18°11' W 063°08'0 0.0
2016-May-02 14:24N 18°11' W 063°08'0 0.0
2016-May-02 13:27N 18°11' W 063°08'0 0.0
2016-May-02 12:27N 18°11' W 063°08'0 0.0
2016-May-02 11:24N 18°11' W 063°08'0 0.0
2016-May-02 10:15N 18°11' W 063°08'5 5.5
2016-May-02 09:25N 18°07' W 063°11'910.8
2016-May-02 08:33N 17°60' W 063°05'5111.4
2016-May-02 04:07N 17°43' W 062°15'611.4
2016-May-02 03:34N 17°41' W 062°09'1211.5
2016-May-02 02:33N 17°38' W 061°57'5 4.7
2016-May-02 01:31N 17°37' W 061°52'0 0.0
2016-May-02 00:31N 17°37' W 061°52'0 0.0
2016-May-01 23:25N 17°37' W 061°52'0 0.0
2016-May-01 22:31N 17°37' W 061°52'0 0.0
2016-May-01 21:31N 17°37' W 061°52'0 0.0
2016-May-01 20:33N 17°37' W 061°52'0 0.0
2016-May-01 19:33N 17°37' W 061°52'3 3.1
2016-May-01 18:33N 17°34' W 061°53'9 9.2
2016-May-01 17:34N 17°26' W 061°57'1413.7
2016-May-01 16:33N 17°12' W 061°56'8 7.6
2016-May-01 15:32N 17°04' W 061°54'0 0.0
2016-May-01 14:32N 17°04' W 061°54'0 0.0
2016-May-01 13:32N 17°04' W 061°54'0 0.0
2016-May-01 12:29N 17°04' W 061°54'0 0.0
2016-May-01 11:32N 17°04' W 061°54'0 0.0
2016-May-01 10:32N 17°04' W 061°54'0 0.0
2016-May-01 09:32N 17°04' W 061°54'0 0.0
2016-May-01 08:32N 17°04' W 061°54'0 0.0
2016-May-01 07:32N 17°04' W 061°54'0 0.0
2016-May-01 06:32N 17°04' W 061°54'0 0.0
2016-May-01 05:32N 17°04' W 061°54'0 0.0
2016-May-01 04:32N 17°04' W 061°54'0 0.0
2016-May-01 03:32N 17°04' W 061°54'0 0.0
2016-May-01 02:32N 17°04' W 061°54'0 0.0
2016-May-01 01:34N 17°04' W 061°54'0 0.0
2016-May-01 00:33N 17°04' W 061°54'0 0.0
2016-Apr-30 23:33N 17°04' W 061°54'0 0.0
2016-Apr-30 22:34N 17°04' W 061°54'0 0.0
2016-Apr-30 21:33N 17°04' W 061°54'0 0.0
2016-Apr-30 20:33N 17°04' W 061°54'0 0.0
2016-Apr-30 19:33N 17°04' W 061°54'0 0.0
2016-Apr-30 18:34N 17°04' W 061°54'0 0.0
2016-Apr-30 17:34N 17°04' W 061°54'0 0.0
2016-Apr-30 16:34N 17°04' W 061°54'0 0.0
2016-Apr-30 15:33N 17°04' W 061°54'0 0.0
2016-Apr-30 14:34N 17°04' W 061°54'1 1.2
2016-Apr-30 13:33N 17°04' W 061°55'8 8.1
2016-Apr-30 12:34N 16°60' W 061°48'2 1.7
2016-Apr-30 11:31N 17°01' W 061°46'0 0.0
2016-Apr-30 10:31N 17°01' W 061°46'0 0.0
2016-Apr-30 09:28N 17°01' W 061°46'0 0.0
2016-Apr-30 08:31N 17°01' W 061°46'0 0.0
2016-Apr-30 07:31N 17°01' W 061°46'0 0.0
2016-Apr-30 06:31N 17°01' W 061°46'0 0.0
2016-Apr-30 05:31N 17°01' W 061°46'0 0.0
2016-Apr-30 04:31N 17°01' W 061°46'0 0.0
2016-Apr-30 03:31N 17°01' W 061°46'0 0.0
2016-Apr-30 02:31N 17°01' W 061°46'0 0.0
2016-Apr-30 01:31N 17°01' W 061°46'0 0.0
2016-Apr-30 00:31N 17°01' W 061°46'0 0.0
2016-Apr-29 23:31N 17°01' W 061°46'0 0.0
2016-Apr-29 22:31N 17°01' W 061°46'0 0.0
2016-Apr-29 21:31N 17°01' W 061°46'0 0.0
2016-Apr-29 20:31N 17°01' W 061°46'0 0.0
2016-Apr-29 19:31N 17°01' W 061°46'0 0.0
2016-Apr-29 18:31N 17°01' W 061°46'0 0.0
2016-Apr-29 17:31N 17°01' W 061°46'0 0.0
2016-Apr-29 16:31N 17°01' W 061°46'0 0.0
2016-Apr-29 15:31N 17°01' W 061°46'0 0.0
2016-Apr-29 14:28N 17°01' W 061°46'0 0.0
2016-Apr-29 13:31N 17°01' W 061°46'0 0.0
2016-Apr-29 12:31N 17°01' W 061°46'0 0.0
2016-Apr-29 11:31N 17°01' W 061°46'0 0.0
2016-Apr-29 10:31N 17°01' W 061°46'0 0.0
2016-Apr-29 09:31N 17°01' W 061°46'0 0.0
2016-Apr-29 08:31N 17°01' W 061°46'0 0.0
2016-Apr-29 07:31N 17°01' W 061°46'0 0.0
2016-Apr-29 06:31N 17°01' W 061°46'0 0.0
2016-Apr-29 05:31N 17°01' W 061°46'0 0.0
2016-Apr-29 04:31N 17°01' W 061°46'0 0.0
2016-Apr-29 03:31N 17°01' W 061°46'0 0.0
2016-Apr-29 02:31N 17°01' W 061°46'0 0.0
2016-Apr-29 01:31N 17°01' W 061°46'0 0.0
2016-Apr-29 00:31N 17°01' W 061°46'0 0.0
2016-Apr-28 23:31N 17°01' W 061°46'0 0.0
2016-Apr-28 22:31N 17°01' W 061°46'0 0.0
2016-Apr-28 21:31N 17°01' W 061°46'0 0.0
2016-Apr-28 20:31N 17°01' W 061°46'0 0.0
2016-Apr-28 19:31N 17°01' W 061°46'0 0.0
2016-Apr-28 18:31N 17°01' W 061°46'0 0.0
2016-Apr-28 17:31N 17°01' W 061°46'0 0.0
2016-Apr-28 16:31N 17°01' W 061°46'0 0.0
2016-Apr-28 15:31N 17°01' W 061°46'0 0.0
2016-Apr-28 14:31N 17°01' W 061°46'0 0.0
2016-Apr-28 13:31N 17°01' W 061°46'0 0.0
2016-Apr-28 12:31N 17°01' W 061°46'0 0.0
2016-Apr-28 11:31N 17°01' W 061°46'0 0.0
2016-Apr-28 10:31N 17°01' W 061°46'0 0.0
2016-Apr-28 09:31N 17°01' W 061°46'0 0.0
2016-Apr-28 08:31N 17°01' W 061°46'0 0.0
2016-Apr-28 07:31N 17°01' W 061°46'0 0.0
2016-Apr-28 06:31N 17°01' W 061°46'0 0.0
2016-Apr-28 05:31N 17°01' W 061°46'0 0.0
2016-Apr-28 04:31N 17°01' W 061°46'0 0.0
2016-Apr-28 03:31N 17°01' W 061°46'0 0.0
2016-Apr-28 02:31N 17°01' W 061°46'0 0.0
2016-Apr-28 01:31N 17°01' W 061°46'0 0.0
2016-Apr-28 00:31N 17°01' W 061°46'0 0.0
2016-Apr-27 23:31N 17°01' W 061°46'0 0.0
2016-Apr-27 22:31N 17°01' W 061°46'0 0.0
2016-Apr-27 21:31N 17°01' W 061°46'0 0.0
2016-Apr-27 20:31N 17°01' W 061°46'0 0.0
2016-Apr-27 19:31N 17°01' W 061°46'0 0.0
2016-Apr-27 18:31N 17°01' W 061°46'0 0.0
2016-Apr-27 17:31N 17°01' W 061°46'0 0.0
2016-Apr-27 16:31N 17°01' W 061°46'0 0.0
2016-Apr-27 15:31N 17°01' W 061°46'0 0.0
2016-Apr-27 14:31N 17°01' W 061°46'0 0.0
2016-Apr-27 13:31N 17°01' W 061°46'0 0.0
2016-Apr-27 12:31N 17°01' W 061°46'0 0.0
2016-Apr-27 11:31N 17°01' W 061°46'0 0.0
2016-Apr-27 10:31N 17°01' W 061°46'0 0.0
2016-Apr-27 09:31N 17°01' W 061°46'0 0.0
2016-Apr-27 08:31N 17°01' W 061°46'0 0.0
2016-Apr-27 07:31N 17°01' W 061°46'0 0.0
2016-Apr-27 06:31N 17°01' W 061°46'0 0.0
2016-Apr-27 05:31N 17°01' W 061°46'0 0.0
2016-Apr-27 04:31N 17°01' W 061°46'0 0.0
2016-Apr-27 03:31N 17°01' W 061°46'0 0.0
2016-Apr-27 02:31N 17°01' W 061°46'0 0.0
2016-Apr-27 01:31N 17°01' W 061°46'0 0.0
2016-Apr-27 00:25N 17°01' W 061°46'0 0.0
2016-Apr-26 23:31N 17°01' W 061°46'0 0.0
2016-Apr-26 22:31N 17°01' W 061°46'0 0.0
2016-Apr-26 21:31N 17°01' W 061°46'0 0.0
2016-Apr-26 20:31N 17°01' W 061°46'0 0.0
2016-Apr-26 19:31N 17°01' W 061°46'0 0.0
2016-Apr-26 18:31N 17°01' W 061°46'0 0.0
2016-Apr-26 17:31N 17°01' W 061°46'0 0.0
2016-Apr-26 16:31N 17°01' W 061°46'0 0.0
2016-Apr-26 15:31N 17°01' W 061°46'0 0.0
2016-Apr-26 14:31N 17°01' W 061°46'0 0.0
2016-Apr-26 13:31N 17°01' W 061°46'0 0.0
2016-Apr-26 12:31N 17°01' W 061°46'0 0.0
2016-Apr-26 11:31N 17°01' W 061°46'0 0.0
2016-Apr-26 10:31N 17°01' W 061°46'0 0.0
2016-Apr-26 09:31N 17°01' W 061°46'0 0.0
2016-Apr-26 08:31N 17°01' W 061°46'0 0.0
2016-Apr-26 07:31N 17°01' W 061°46'0 0.0
2016-Apr-26 06:31N 17°01' W 061°46'0 0.0
2016-Apr-26 05:31N 17°01' W 061°46'0 0.0
2016-Apr-26 04:28N 17°01' W 061°46'0 0.0
2016-Apr-26 03:31N 17°01' W 061°46'0 0.0
2016-Apr-26 02:28N 17°01' W 061°46'0 0.0
2016-Apr-26 01:31N 17°01' W 061°46'0 0.0
2016-Apr-26 00:31N 17°01' W 061°46'0 0.0
2016-Apr-25 23:31N 17°01' W 061°46'0 0.0
2016-Apr-25 22:31N 17°01' W 061°46'0 0.0
2016-Apr-25 21:31N 17°01' W 061°46'0 0.0
2016-Apr-25 20:31N 17°01' W 061°46'0 0.0
2016-Apr-25 19:31N 17°01' W 061°46'0 0.0
2016-Apr-25 18:31N 17°01' W 061°46'0 0.0
2016-Apr-25 17:31N 17°01' W 061°46'0 0.0
2016-Apr-25 16:31N 17°01' W 061°46'0 0.0
2016-Apr-25 15:28N 17°01' W 061°46'0 0.0
2016-Apr-25 14:31N 17°01' W 061°46'0 0.0
2016-Apr-25 13:31N 17°01' W 061°46'0 0.0
2016-Apr-25 12:31N 17°01' W 061°46'0 0.0
2016-Apr-25 11:31N 17°01' W 061°46'0 0.0
2016-Apr-25 10:31N 17°01' W 061°46'0 0.0
2016-Apr-25 09:31N 17°01' W 061°46'0 0.0
2016-Apr-25 08:31N 17°01' W 061°46'0 0.0
2016-Apr-25 07:31N 17°01' W 061°46'0 0.0
2016-Apr-25 06:31N 17°01' W 061°46'0 0.0
2016-Apr-25 05:31N 17°01' W 061°46'0 0.0
2016-Apr-25 04:31N 17°01' W 061°46'0 0.0
2016-Apr-25 03:31N 17°01' W 061°46'0 0.0
2016-Apr-25 02:31N 17°01' W 061°46'  
Track history (hours):
 
Tides and Currents Weather Stations Pressure Air Temp Water Temp Dewpoint Dewpoint Depression Visibility Wind Speed Wind Dir Waves Ship Positions

Plan B

Last reported at 2016-May-05 02:14 UTC. Time now 2016-May-05 02:54 UTC.
Position N 18°28' W 064°35'.

Length 73 m; draft 3.6 m.

Type: Pleasure craft. MMSI: 319618000.

Date/timePositionNaut miles runAvg speedWind from/ knotsBaromVisibWave heightAir tempDewpointWater temp
2016-May-05 02:14N 18°28' W 064°35'0 0.0
2016-May-05 01:32N 18°28' W 064°35'0 0.0
2016-May-05 00:05N 18°28' W 064°35'0 0.3
2016-May-04 23:33N 18°28' W 064°35'9 4.4
2016-May-04 21:32N 18°28' W 064°25'2 0.6
2016-May-04 18:11N 18°26' W 064°27'0 0.0
2016-May-04 17:22N 18°26' W 064°27'0 0.0
2016-May-04 16:28N 18°26' W 064°27'0 0.0
2016-May-04 15:28N 18°26' W 064°27'0 0.0
2016-May-04 14:28N 18°26' W 064°27'0 0.0
2016-May-04 13:31N 18°26' W 064°27'0 0.0
2016-May-04 12:31N 18°26' W 064°27'6 0.2
2016-May-03 09:33N 18°31' W 064°23'5611.0
2016-May-03 04:31N 18°15' W 063°27'1311.3
2016-May-03 03:23N 18°08' W 063°16'1011.1
2016-May-03 02:28N 18°02' W 063°07'1 1.3
2016-May-03 01:33N 18°02' W 063°06'0 0.0
2016-May-03 00:32N 18°02' W 063°06'0 0.0
2016-May-02 23:29N 18°02' W 063°06'0 0.0
2016-May-02 22:20N 18°02' W 063°06'0 0.0
2016-May-02 21:32N 18°02' W 063°06'0 0.2
2016-May-02 20:33N 18°02' W 063°06'9 9.3
2016-May-02 19:32N 18°11' W 063°09'0 0.1
2016-May-02 18:33N 18°11' W 063°08'0 0.0
2016-May-02 17:24N 18°11' W 063°08'0 0.0
2016-May-02 16:24N 18°11' W 063°08'0 0.0
2016-May-02 15:24N 18°11' W 063°08'0 0.0
2016-May-02 14:24N 18°11' W 063°08'0 0.0
2016-May-02 13:27N 18°11' W 063°08'0 0.0
2016-May-02 12:27N 18°11' W 063°08'0 0.0
2016-May-02 11:24N 18°11' W 063°08'0 0.0
2016-May-02 10:15N 18°11' W 063°08'5 5.5
2016-May-02 09:25N 18°07' W 063°11'910.8
2016-May-02 08:33N 17°60' W 063°05'5111.4
2016-May-02 04:07N 17°43' W 062°15'611.4
2016-May-02 03:34N 17°41' W 062°09'1211.5
2016-May-02 02:33N 17°38' W 061°57'5 4.7
2016-May-02 01:31N 17°37' W 061°52'0 0.0
2016-May-02 00:31N 17°37' W 061°52'0 0.0
2016-May-01 23:25N 17°37' W 061°52'0 0.0
2016-May-01 22:31N 17°37' W 061°52'0 0.0
2016-May-01 21:31N 17°37' W 061°52'0 0.0
2016-May-01 20:33N 17°37' W 061°52'0 0.0
2016-May-01 19:33N 17°37' W 061°52'3 3.1
2016-May-01 18:33N 17°34' W 061°53'9 9.2
2016-May-01 17:34N 17°26' W 061°57'1413.7
2016-May-01 16:33N 17°12' W 061°56'8 7.6
2016-May-01 15:32N 17°04' W 061°54'0 0.0
2016-May-01 14:32N 17°04' W 061°54'0 0.0
2016-May-01 13:32N 17°04' W 061°54'0 0.0
2016-May-01 12:29N 17°04' W 061°54'0 0.0
2016-May-01 11:32N 17°04' W 061°54'0 0.0
2016-May-01 10:32N 17°04' W 061°54'0 0.0
2016-May-01 09:32N 17°04' W 061°54'0 0.0
2016-May-01 08:32N 17°04' W 061°54'0 0.0
2016-May-01 07:32N 17°04' W 061°54'0 0.0
2016-May-01 06:32N 17°04' W 061°54'0 0.0
2016-May-01 05:32N 17°04' W 061°54'0 0.0
2016-May-01 04:32N 17°04' W 061°54'0 0.0
2016-May-01 03:32N 17°04' W 061°54'0 0.0
2016-May-01 02:32N 17°04' W 061°54'0 0.0
2016-May-01 01:34N 17°04' W 061°54'0 0.0
2016-May-01 00:33N 17°04' W 061°54'0 0.0
2016-Apr-30 23:33N 17°04' W 061°54'0 0.0
2016-Apr-30 22:34N 17°04' W 061°54'0 0.0
2016-Apr-30 21:33N 17°04' W 061°54'0 0.0
2016-Apr-30 20:33N 17°04' W 061°54'0 0.0
2016-Apr-30 19:33N 17°04' W 061°54'0 0.0
2016-Apr-30 18:34N 17°04' W 061°54'0 0.0
2016-Apr-30 17:34N 17°04' W 061°54'0 0.0
2016-Apr-30 16:34N 17°04' W 061°54'0 0.0
2016-Apr-30 15:33N 17°04' W 061°54'0 0.0
2016-Apr-30 14:34N 17°04' W 061°54'1 1.2
2016-Apr-30 13:33N 17°04' W 061°55'8 8.1
2016-Apr-30 12:34N 16°60' W 061°48'2 1.7
2016-Apr-30 11:31N 17°01' W 061°46'0 0.0
2016-Apr-30 10:31N 17°01' W 061°46'0 0.0
2016-Apr-30 09:28N 17°01' W 061°46'0 0.0
2016-Apr-30 08:31N 17°01' W 061°46'0 0.0
2016-Apr-30 07:31N 17°01' W 061°46'0 0.0
2016-Apr-30 06:31N 17°01' W 061°46'0 0.0
2016-Apr-30 05:31N 17°01' W 061°46'0 0.0
2016-Apr-30 04:31N 17°01' W 061°46'0 0.0
2016-Apr-30 03:31N 17°01' W 061°46'0 0.0
2016-Apr-30 02:31N 17°01' W 061°46'0 0.0
2016-Apr-30 01:31N 17°01' W 061°46'0 0.0
2016-Apr-30 00:31N 17°01' W 061°46'0 0.0
2016-Apr-29 23:31N 17°01' W 061°46'0 0.0
2016-Apr-29 22:31N 17°01' W 061°46'0 0.0
2016-Apr-29 21:31N 17°01' W 061°46'0 0.0
2016-Apr-29 20:31N 17°01' W 061°46'0 0.0
2016-Apr-29 19:31N 17°01' W 061°46'0 0.0
2016-Apr-29 18:31N 17°01' W 061°46'0 0.0
2016-Apr-29 17:31N 17°01' W 061°46'0 0.0
2016-Apr-29 16:31N 17°01' W 061°46'0 0.0
2016-Apr-29 15:31N 17°01' W 061°46'0 0.0
2016-Apr-29 14:28N 17°01' W 061°46'0 0.0
2016-Apr-29 13:31N 17°01' W 061°46'0 0.0
2016-Apr-29 12:31N 17°01' W 061°46'0 0.0
2016-Apr-29 11:31N 17°01' W 061°46'0 0.0
2016-Apr-29 10:31N 17°01' W 061°46'0 0.0
2016-Apr-29 09:31N 17°01' W 061°46'0 0.0
2016-Apr-29 08:31N 17°01' W 061°46'0 0.0
2016-Apr-29 07:31N 17°01' W 061°46'0 0.0
2016-Apr-29 06:31N 17°01' W 061°46'0 0.0
2016-Apr-29 05:31N 17°01' W 061°46'0 0.0
2016-Apr-29 04:31N 17°01' W 061°46'0 0.0
2016-Apr-29 03:31N 17°01' W 061°46'0 0.0
2016-Apr-29 02:31N 17°01' W 061°46'0 0.0
2016-Apr-29 01:31N 17°01' W 061°46'0 0.0
2016-Apr-29 00:31N 17°01' W 061°46'0 0.0
2016-Apr-28 23:31N 17°01' W 061°46'0 0.0
2016-Apr-28 22:31N 17°01' W 061°46'0 0.0
2016-Apr-28 21:31N 17°01' W 061°46'0 0.0
2016-Apr-28 20:31N 17°01' W 061°46'0 0.0
2016-Apr-28 19:31N 17°01' W 061°46'0 0.0
2016-Apr-28 18:31N 17°01' W 061°46'0 0.0
2016-Apr-28 17:31N 17°01' W 061°46'0 0.0
2016-Apr-28 16:31N 17°01' W 061°46'0 0.0
2016-Apr-28 15:31N 17°01' W 061°46'0 0.0
2016-Apr-28 14:31N 17°01' W 061°46'0 0.0
2016-Apr-28 13:31N 17°01' W 061°46'0 0.0
2016-Apr-28 12:31N 17°01' W 061°46'0 0.0
2016-Apr-28 11:31N 17°01' W 061°46'0 0.0
2016-Apr-28 10:31N 17°01' W 061°46'0 0.0
2016-Apr-28 09:31N 17°01' W 061°46'0 0.0
2016-Apr-28 08:31N 17°01' W 061°46'0 0.0
2016-Apr-28 07:31N 17°01' W 061°46'0 0.0
2016-Apr-28 06:31N 17°01' W 061°46'0 0.0
2016-Apr-28 05:31N 17°01' W 061°46'0 0.0
2016-Apr-28 04:31N 17°01' W 061°46'0 0.0
2016-Apr-28 03:31N 17°01' W 061°46'0 0.0
2016-Apr-28 02:31N 17°01' W 061°46'0 0.0
2016-Apr-28 01:31N 17°01' W 061°46'0 0.0
2016-Apr-28 00:31N 17°01' W 061°46'0 0.0
2016-Apr-27 23:31N 17°01' W 061°46'0 0.0
2016-Apr-27 22:31N 17°01' W 061°46'0 0.0
2016-Apr-27 21:31N 17°01' W 061°46'0 0.0
2016-Apr-27 20:31N 17°01' W 061°46'0 0.0
2016-Apr-27 19:31N 17°01' W 061°46'0 0.0
2016-Apr-27 18:31N 17°01' W 061°46'0 0.0
2016-Apr-27 17:31N 17°01' W 061°46'0 0.0
2016-Apr-27 16:31N 17°01' W 061°46'0 0.0
2016-Apr-27 15:31N 17°01' W 061°46'0 0.0
2016-Apr-27 14:31N 17°01' W 061°46'0 0.0
2016-Apr-27 13:31N 17°01' W 061°46'0 0.0
2016-Apr-27 12:31N 17°01' W 061°46'0 0.0
2016-Apr-27 11:31N 17°01' W 061°46'0 0.0
2016-Apr-27 10:31N 17°01' W 061°46'0 0.0
2016-Apr-27 09:31N 17°01' W 061°46'0 0.0
2016-Apr-27 08:31N 17°01' W 061°46'0 0.0
2016-Apr-27 07:31N 17°01' W 061°46'0 0.0
2016-Apr-27 06:31N 17°01' W 061°46'0 0.0
2016-Apr-27 05:31N 17°01' W 061°46'0 0.0
2016-Apr-27 04:31N 17°01' W 061°46'0 0.0
2016-Apr-27 03:31N 17°01' W 061°46'0 0.0
2016-Apr-27 02:31N 17°01' W 061°46'0 0.0
2016-Apr-27 01:31N 17°01' W 061°46'0 0.0
2016-Apr-27 00:25N 17°01' W 061°46'0 0.0
2016-Apr-26 23:31N 17°01' W 061°46'0 0.0
2016-Apr-26 22:31N 17°01' W 061°46'0 0.0
2016-Apr-26 21:31N 17°01' W 061°46'0 0.0
2016-Apr-26 20:31N 17°01' W 061°46'0 0.0
2016-Apr-26 19:31N 17°01' W 061°46'0 0.0
2016-Apr-26 18:31N 17°01' W 061°46'0 0.0
2016-Apr-26 17:31N 17°01' W 061°46'0 0.0
2016-Apr-26 16:31N 17°01' W 061°46'0 0.0
2016-Apr-26 15:31N 17°01' W 061°46'0 0.0
2016-Apr-26 14:31N 17°01' W 061°46'0 0.0
2016-Apr-26 13:31N 17°01' W 061°46'0 0.0
2016-Apr-26 12:31N 17°01' W 061°46'0 0.0
2016-Apr-26 11:31N 17°01' W 061°46'0 0.0
2016-Apr-26 10:31N 17°01' W 061°46'0 0.0
2016-Apr-26 09:31N 17°01' W 061°46'0 0.0
2016-Apr-26 08:31N 17°01' W 061°46'0 0.0
2016-Apr-26 07:31N 17°01' W 061°46'0 0.0
2016-Apr-26 06:31N 17°01' W 061°46'0 0.0
2016-Apr-26 05:31N 17°01' W 061°46'0 0.0
2016-Apr-26 04:28N 17°01' W 061°46'0 0.0
2016-Apr-26 03:31N 17°01' W 061°46'0 0.0
2016-Apr-26 02:28N 17°01' W 061°46'0 0.0
2016-Apr-26 01:31N 17°01' W 061°46'0 0.0
2016-Apr-26 00:31N 17°01' W 061°46'0 0.0
2016-Apr-25 23:31N 17°01' W 061°46'0 0.0
2016-Apr-25 22:31N 17°01' W 061°46'0 0.0
2016-Apr-25 21:31N 17°01' W 061°46'0 0.0
2016-Apr-25 20:31N 17°01' W 061°46'0 0.0
2016-Apr-25 19:31N 17°01' W 061°46'0 0.0
2016-Apr-25 18:31N 17°01' W 061°46'0 0.0
2016-Apr-25 17:31N 17°01' W 061°46'0 0.0
2016-Apr-25 16:31N 17°01' W 061°46'0 0.0
2016-Apr-25 15:28N 17°01' W 061°46'0 0.0
2016-Apr-25 14:31N 17°01' W 061°46'0 0.0
2016-Apr-25 13:31N 17°01' W 061°46'0 0.0
2016-Apr-25 12:31N 17°01' W 061°46'0 0.0
2016-Apr-25 11:31N 17°01' W 061°46'0 0.0
2016-Apr-25 10:31N 17°01' W 061°46'0 0.0
2016-Apr-25 09:31N 17°01' W 061°46'0 0.0
2016-Apr-25 08:31N 17°01' W 061°46'0 0.0
2016-Apr-25 07:31N 17°01' W 061°46'0 0.0
2016-Apr-25 06:31N 17°01' W 061°46'0 0.0
2016-Apr-25 05:31N 17°01' W 061°46'0 0.0
2016-Apr-25 04:31N 17°01' W 061°46'0 0.0
2016-Apr-25 03:31N 17°01' W 061°46'0 0.0
2016-Apr-25 02:31N 17°01' W 061°46'  

Dump ship's entire track history